CYMX/YMX METAR and TAF weather

Enter ICAO airport designator
Station Type Date Time Source
CYMX METAR 2020/08/10 19:00 UTC NOAA

CYMX 101900Z 18006KT 170V230 35SM BKN035 BKN250 26/19 A2994 RMK CU5CI1 SLP139 DENSITY ALT 1600FT


Station Type Date Time Source
CYMX Decoded METAR 2020/08/10 19:00 UTC NOAA

Montreal / Mirabel, Canada (CYMX) 45-41N 074-02W
Aug 10, 2020 - 03:00 PM EDT / 2020.08.10 1900 UTC
Wind: from the S (180 degrees) at 7 MPH (6 KT) (direction variable):0
Visibility: 35 mile(s):0
Sky conditions: mostly cloudy
Temperature: 78 F (26 C)
Dew Point: 66 F (19 C)
Relative Humidity: 65%
Pressure (altimeter): 29.94 in. Hg (1013 hPa)
ob: CYMX 101900Z 18006KT 170V230 35SM BKN035 BKN250 26/19 A2994 RMK CU5CI1 SLP139 DENSITY ALT 1600FT
cycle: 19

Station Type Date Time Source
CYMX TAF 2020/08/10 18:42 UTC NOAA

TAF CYMX 101738Z 1018/1118 20006KT P6SM BKN040
FM102100 23008KT P6SM BKN040 PROB30 1021/1101 VRB20G30KT 1SM +TSRA BR BKN020 OVC040CB
FM110100 21006KT P6SM SCT040
FM110800 VRB03KT P6SM FEW040 PROB30 1108/1112 3/4SM BR
FM111500 22008KT P6SM SCT060
RMK NXT FCST BY 110000Z

Example: see airport list